Time;durP1;ratioP1;P1;durP2;ratioP2;P2;SDS_P1;SDS_P2;PMS_P1;PMS_P2;Temp;Humidity;BMP_temperature;BMP_pressure;BME280_temperature;BME280_humidity;BME280_pressure;Samples;Min_cycle;Max_cycle;Signal;HPM_P1;HPM_P2
2023/07/08 00:00:23;;;;;;;14.20;5.90;;;;;;;-144.73;88.30;54276.34;5028419;28;20030;-69
2023/07/08 00:02:48;;;;;;;11.13;5.20;;;;;;;-144.73;89.22;54227.09;5027915;28;20041;-70
2023/07/08 00:05:17;;;;;;;9.50;4.82;;;;;;;-144.73;89.02;54227.09;5028908;28;20030;-69
2023/07/08 00:07:42;;;;;;;7.78;5.32;;;;;;;-144.73;89.55;54231.19;5020247;28;20022;-70
2023/07/08 00:10:20;;;;;;;8.07;4.70;;;;;;;-144.73;90.26;54231.19;5026795;28;20048;-69
2023/07/08 00:12:48;;;;;;;9.25;5.15;;;;;;;-144.73;89.99;54247.59;5025563;28;20500;-70
2023/07/08 00:15:14;;;;;;;8.55;4.78;;;;;;;-144.73;90.22;54239.41;5026252;28;20502;-69
2023/07/08 00:17:40;;;;;;;8.73;4.70;;;;;;;-144.73;89.73;54247.59;5028627;28;20022;-70
2023/07/08 00:20:17;;;;;;;13.75;4.85;;;;;;;-144.73;90.00;54243.50;5027570;28;20044;-70
2023/07/08 00:22:46;;;;;;;14.95;5.20;;;;;;;-144.73;90.62;54259.91;5027927;28;20029;-70
2023/07/08 00:25:12;;;;;;;8.70;4.32;;;;;;;-144.73;90.94;54259.91;5010330;28;20044;-70
2023/07/08 00:27:38;;;;;;;11.48;5.30;;;;;;;-144.73;91.75;54247.59;5033637;28;20029;-71
2023/07/08 00:30:17;;;;;;;9.77;5.13;;;;;;;-144.73;92.53;54243.50;5011672;28;20041;-71
2023/07/08 00:32:42;;;;;;;13.18;4.93;;;;;;;-144.73;93.31;54247.59;5029110;28;20451;-71
2023/07/08 00:35:08;;;;;;;13.60;5.20;;;;;;;-144.73;95.09;54231.19;5009358;28;20056;-70
2023/07/08 00:37:33;;;;;;;13.25;5.47;;;;;;;-144.73;96.63;54290.72;5007839;28;20030;-71
2023/07/08 00:39:59;;;;;;;16.25;5.53;;;;;;;-144.73;96.61;54241.44;5014522;28;20104;-71
2023/07/08 00:42:25;;;;;;;10.50;5.68;;;;;;;-144.73;96.19;54231.19;5031206;28;20447;-70
2023/07/08 00:44:50;;;;;;;9.27;4.60;;;;;;;-144.73;96.33;54276.34;5028073;28;20087;-71
2023/07/08 00:47:16;;;;;;;9.68;5.50;;;;;;;-144.73;98.08;54220.94;5042989;28;20397;-70
2023/07/08 00:49:51;;;;;;;15.43;5.50;;;;;;;-144.73;98.25;54268.13;5039448;28;20029;-70
2023/07/08 00:52:23;;;;;;;13.63;5.35;;;;;;;-144.73;98.43;54233.25;5024655;28;20013;-70
2023/07/08 00:54:53;;;;;;;14.45;5.72;;;;;;;-144.73;96.97;54235.28;5019795;28;20087;-70
2023/07/08 00:57:20;;;;;;;11.18;4.68;;;;;;;-144.73;97.95;54239.41;5031744;28;20017;-70
2023/07/08 00:59:51;;;;;;;8.73;4.82;;;;;;;-144.73;97.90;54243.50;5004073;28;20038;-70
2023/07/08 01:02:19;;;;;;;11.48;5.25;;;;;;;-144.73;99.90;54276.34;5028697;28;20026;-70
2023/07/08 01:04:51;;;;;;;16.38;6.10;;;;;;;-144.73;100.00;54218.88;5030896;28;20022;-70
2023/07/08 01:07:21;;;;;;;10.82;5.03;;;;;;;-144.73;100.00;54206.56;5012566;28;20033;-70
2023/07/08 01:09:49;;;;;;;13.55;5.88;;;;;;;-144.73;100.00;54249.66;5030920;28;20041;-70
2023/07/08 01:12:20;;;;;;;15.50;5.57;;;;;;;-144.73;100.00;54268.13;5013825;28;20018;-70
2023/07/08 01:14:48;;;;;;;20.63;6.15;;;;;;;-144.73;100.00;54227.09;5030931;28;20049;-70
2023/07/08 01:17:13;;;;;;;18.67;6.35;;;;;;;-144.73;100.00;54259.91;5014095;28;20071;-70
2023/07/08 01:19:43;;;;;;;12.00;6.13;;;;;;;-144.73;100.00;54255.81;5031106;28;20025;-70
2023/07/08 01:22:09;;;;;;;10.20;4.68;;;;;;;-144.73;100.00;54251.72;5029680;28;20025;-71
2023/07/08 01:24:38;;;;;;;14.30;5.40;;;;;;;-144.73;100.00;54276.34;5030734;28;20021;-70
2023/07/08 01:27:07;;;;;;;13.15;6.05;;;;;;;-144.73;100.00;54259.91;5014275;28;20027;-70
2023/07/08 01:29:32;;;;;;;14.50;6.25;;;;;;;-144.73;100.00;54288.66;5026567;28;20029;-70
2023/07/08 01:31:58;;;;;;;15.80;5.70;;;;;;;-144.73;100.00;54280.44;5017416;28;20025;-70
2023/07/08 01:34:24;;;;;;;14.82;6.30;;;;;;;-144.73;100.00;54264.03;5007890;28;20112;-71
2023/07/08 01:36:53;;;;;;;10.45;5.55;;;;;;;-144.73;100.00;54239.41;5030702;28;20033;-70
2023/07/08 01:39:22;;;;;;;11.27;6.25;;;;;;;-144.73;100.00;54227.09;5013316;28;20552;-70
2023/07/08 01:41:47;;;;;;;15.18;5.20;;;;;;;-144.73;100.00;54245.56;5029665;28;20445;-70
2023/07/08 01:44:27;;;;;;;12.45;5.53;;;;;;;-144.73;100.00;54300.97;5013252;28;20104;-70
2023/07/08 01:46:56;;;;;;;16.73;6.05;;;;;;;-144.73;100.00;54243.50;5013627;28;20041;-71
2023/07/08 01:49:22;;;;;;;11.43;6.30;;;;;;;-144.73;100.00;54243.50;5030070;28;20026;-70
2023/07/08 01:51:49;;;;;;;7.15;5.43;;;;;;;-144.73;100.00;54247.59;5018643;28;20036;-70
2023/07/08 01:54:14;;;;;;;9.63;5.88;;;;;;;-144.73;100.00;54239.41;5029077;28;20025;-71
2023/07/08 01:56:40;;;;;;;11.60;6.25;;;;;;;-144.73;100.00;54239.41;5029802;28;20046;-70
2023/07/08 01:59:05;;;;;;;11.50;6.20;;;;;;;-144.73;100.00;54243.50;5012524;28;20034;-70
2023/07/08 02:01:31;;;;;;;10.73;5.80;;;;;;;-144.73;100.00;54284.56;5011927;28;20390;-70
2023/07/08 02:03:56;;;;;;;9.93;5.60;;;;;;;-144.73;100.00;54292.75;5029416;28;20033;-69
2023/07/08 02:06:21;;;;;;;8.18;5.25;;;;;;;-144.73;100.00;54255.81;5027791;28;20040;-70
2023/07/08 02:08:46;;;;;;;13.48;5.90;;;;;;;-144.73;100.00;54264.03;5013042;28;20033;-70
2023/07/08 02:11:12;;;;;;;11.15;5.88;;;;;;;-144.73;100.00;54235.28;5012578;28;20029;-70
2023/07/08 02:13:37;;;;;;;14.82;6.45;;;;;;;-144.73;100.00;54294.81;5013205;28;20033;-70
2023/07/08 02:16:03;;;;;;;18.88;6.43;;;;;;;-144.73;100.00;54259.91;5012530;28;20030;-70
2023/07/08 02:18:32;;;;;;;9.05;5.50;;;;;;;-144.73;100.00;54268.13;5013032;28;20029;-70
2023/07/08 02:20:57;;;;;;;10.73;5.78;;;;;;;-144.73;100.00;54288.66;5011623;28;20025;-70
2023/07/08 02:23:25;;;;;;;10.18;5.65;;;;;;;-144.73;100.00;54264.03;5011663;28;20025;-69
2023/07/08 02:25:51;;;;;;;13.88;5.68;;;;;;;-144.73;100.00;54257.88;5029849;28;20036;-70
2023/07/08 02:28:17;;;;;;;13.75;6.80;;;;;;;-144.73;100.00;54276.34;5012545;28;20037;-70
2023/07/08 02:30:42;;;;;;;15.88;6.85;;;;;;;-144.73;100.00;54266.06;5026088;28;20060;-70
2023/07/08 02:33:09;;;;;;;9.57;5.43;;;;;;;-144.73;100.00;54276.34;5008117;28;20025;-70
2023/07/08 02:35:35;;;;;;;20.65;6.53;;;;;;;-144.73;100.00;54247.59;5029871;28;20034;-70
2023/07/08 02:38:00;;;;;;;11.95;5.97;;;;;;;-144.73;100.00;54255.81;5013139;28;20040;-70
2023/07/08 02:40:26;;;;;;;12.70;5.72;;;;;;;-144.73;100.00;54259.91;5029304;28;20037;-70
2023/07/08 02:42:51;;;;;;;11.07;5.78;;;;;;;-144.73;100.00;54235.28;5029313;28;20021;-70
2023/07/08 02:45:19;;;;;;;9.60;6.00;;;;;;;-144.73;100.00;54280.44;5012365;28;20367;-70
2023/07/08 02:47:44;;;;;;;16.45;6.47;;;;;;;-144.73;100.00;54259.91;5002614;28;20034;-70
2023/07/08 02:50:11;;;;;;;11.00;6.32;;;;;;;-144.73;100.00;54210.66;5029092;28;20494;-70
2023/07/08 02:52:37;;;;;;;10.65;5.70;;;;;;;-144.73;100.00;54259.91;5027921;28;20048;-70
2023/07/08 02:55:03;;;;;;;11.07;6.30;;;;;;;-144.73;100.00;54247.59;5029889;28;20026;-70
2023/07/08 02:57:28;;;;;;;14.38;5.78;;;;;;;-144.73;100.00;54264.03;5030260;28;20108;-70
2023/07/08 02:59:54;;;;;;;14.25;6.38;;;;;;;-144.73;100.00;54247.59;5011931;28;20528;-70
2023/07/08 03:02:21;;;;;;;10.27;6.20;;;;;;;-144.73;100.00;54292.75;5012294;28;20021;-71
2023/07/08 03:04:46;;;;;;;15.07;5.72;;;;;;;-144.73;100.00;54251.72;5011469;28;20038;-70
2023/07/08 03:07:13;;;;;;;9.27;5.70;;;;;;;-144.73;100.00;54284.56;5018663;28;20040;-70
2023/07/08 03:09:39;;;;;;;14.98;6.13;;;;;;;-144.73;100.00;54284.56;5028214;28;20025;-70
2023/07/08 03:12:06;;;;;;;11.65;5.93;;;;;;;-144.73;100.00;54342.03;5029326;28;20024;-70
2023/07/08 03:14:32;;;;;;;13.13;6.00;;;;;;;-144.73;100.00;54247.59;5028542;28;20065;-70
2023/07/08 03:16:57;;;;;;;7.93;5.25;;;;;;;-144.73;100.00;54239.41;5010335;28;20049;-70
2023/07/08 03:19:22;;;;;;;12.43;6.40;;;;;;;-144.73;100.00;54307.13;5011298;28;20103;-70
2023/07/08 03:21:48;;;;;;;11.35;6.15;;;;;;;-144.73;100.00;54245.56;5008308;28;20053;-70
2023/07/08 03:24:13;;;;;;;12.80;5.43;;;;;;;-144.73;100.00;54227.09;5028768;28;20055;-70
2023/07/08 03:26:39;;;;;;;16.30;5.70;;;;;;;-144.73;100.00;54251.72;5011651;28;20030;-70
2023/07/08 03:29:05;;;;;;;14.68;6.70;;;;;;;-144.73;100.00;54259.91;5012342;28;20421;-70
2023/07/08 03:31:30;;;;;;;8.43;5.13;;;;;;;-144.73;100.00;54247.59;5012330;28;20033;-70
2023/07/08 03:33:56;;;;;;;12.25;5.80;;;;;;;-144.73;100.00;54284.56;5011798;28;20022;-70
2023/07/08 03:36:24;;;;;;;11.98;5.57;;;;;;;-144.73;100.00;54235.28;5023780;28;20116;-70
2023/07/08 03:38:51;;;;;;;8.63;5.22;;;;;;;-144.73;100.00;54276.34;5032709;28;20077;-70
2023/07/08 03:41:17;;;;;;;13.02;5.82;;;;;;;-144.73;100.00;54268.13;5011885;28;20116;-70
2023/07/08 03:43:42;;;;;;;14.35;6.22;;;;;;;-144.73;100.00;54247.59;5035520;28;20108;-71
2023/07/08 03:46:11;;;;;;;10.20;5.75;;;;;;;-144.73;100.00;54342.03;5028109;28;20037;-70
2023/07/08 03:48:37;;;;;;;12.38;5.78;;;;;;;-144.73;100.00;54268.13;5028922;28;20025;-70
2023/07/08 03:51:03;;;;;;;10.23;5.57;;;;;;;-144.73;100.00;54247.59;5031177;28;20512;-69
2023/07/08 03:53:28;;;;;;;10.10;6.38;;;;;;;-144.73;100.00;54259.91;5027107;28;20045;-70
2023/07/08 03:55:53;;;;;;;14.52;6.47;;;;;;;-144.73;100.00;54276.34;5010600;28;20108;-70
2023/07/08 03:58:19;;;;;;;11.93;6.35;;;;;;;-144.73;100.00;54311.22;5026994;28;20036;-70
2023/07/08 04:00:44;;;;;;;14.95;5.63;;;;;;;-144.73;100.00;54342.03;5010899;28;20037;-70
2023/07/08 04:03:11;;;;;;;15.70;6.10;;;;;;;-144.73;100.00;54255.81;5011679;28;20025;-71
2023/07/08 04:05:37;;;;;;;16.27;6.90;;;;;;;-144.73;100.00;54280.44;5029228;28;20038;-70
2023/07/08 04:08:02;;;;;;;12.90;6.60;;;;;;;-144.73;100.00;54296.88;5011842;28;20071;-71
2023/07/08 04:10:28;;;;;;;9.75;5.28;;;;;;;-144.73;100.00;54276.34;5027220;28;20036;-70
2023/07/08 04:12:53;;;;;;;11.32;4.88;;;;;;;-144.73;100.00;54286.59;5012443;28;20025;-69
2023/07/08 04:15:18;;;;;;;13.95;5.40;;;;;;;-144.73;100.00;54227.09;5028208;28;20052;-70
2023/07/08 04:17:49;;;;;;;8.15;4.40;;;;;;;-144.73;100.00;54276.34;5033421;28;20060;-70
2023/07/08 04:20:18;;;;;;;9.75;4.50;;;;;;;-144.73;100.00;54239.41;5011545;28;20104;-70
2023/07/08 04:22:43;;;;;;;14.05;5.35;;;;;;;-144.73;100.00;54317.38;5029856;28;20044;-70
2023/07/08 04:25:11;;;;;;;9.25;4.80;;;;;;;-144.73;100.00;54243.50;5031631;28;20410;-70
2023/07/08 04:27:37;;;;;;;11.63;4.53;;;;;;;-144.73;100.00;54259.91;5032879;28;20029;-70
2023/07/08 04:30:04;;;;;;;7.20;4.45;;;;;;;-144.73;100.00;54342.03;5031756;28;20043;-70
2023/07/08 04:32:30;;;;;;;8.15;4.30;;;;;;;-144.73;100.00;54329.72;5027846;28;20478;-70
2023/07/08 04:34:55;;;;;;;8.18;4.55;;;;;;;-144.73;100.00;54264.03;5028667;28;20033;-70
2023/07/08 04:37:20;;;;;;;6.70;4.00;;;;;;;-144.73;100.00;54296.88;5013605;28;20022;-70
2023/07/08 04:39:46;;;;;;;7.57;4.38;;;;;;;-144.73;100.00;54266.06;5013220;28;20064;-70
2023/07/08 04:42:16;;;;;;;8.32;3.95;;;;;;;-144.73;100.00;54292.75;5013785;28;20053;-70
2023/07/08 04:44:42;;;;;;;10.48;4.45;;;;;;;-144.73;100.00;54296.88;5014244;28;20048;-70
2023/07/08 04:47:08;;;;;;;7.22;3.67;;;;;;;-144.73;100.00;54298.91;5035099;28;20026;-71
2023/07/08 04:49:35;;;;;;;8.50;4.10;;;;;;;-144.73;100.00;54305.06;5009018;28;20156;-70
2023/07/08 04:52:01;;;;;;;9.32;3.83;;;;;;;-144.73;100.00;54257.88;5016557;28;20020;-70
2023/07/08 04:54:28;;;;;;;9.75;4.43;;;;;;;-144.73;100.00;54251.72;5012430;28;20509;-71
2023/07/08 04:56:53;;;;;;;6.30;3.65;;;;;;;-144.73;100.00;54264.03;5025621;28;20087;-70
2023/07/08 04:59:22;;;;;;;9.35;4.35;;;;;;;-144.73;100.00;54276.34;5021853;28;20065;-70
2023/07/08 05:01:47;;;;;;;7.57;4.15;;;;;;;-144.73;100.00;54231.19;5020476;28;20033;-70
2023/07/08 05:04:14;;;;;;;12.38;4.95;;;;;;;-144.73;98.77;54288.66;5021694;28;20506;-71
2023/07/08 05:06:40;;;;;;;10.52;4.43;;;;;;;-144.73;97.11;54288.66;5002205;28;20095;-70
2023/07/08 05:09:07;;;;;;;9.45;3.67;;;;;;;-144.73;94.57;54235.28;5005471;28;20017;-71
2023/07/08 05:11:33;;;;;;;7.15;3.83;;;;;;;-144.73;93.20;54305.06;5027521;28;20030;-71
2023/07/08 05:13:59;;;;;;;12.15;4.05;;;;;;;-144.73;90.55;54300.97;5013852;28;20024;-71
2023/07/08 05:16:24;;;;;;;8.82;3.58;;;;;;;-144.73;89.86;54300.97;5016922;28;20045;-71
2023/07/08 05:18:53;;;;;;;12.68;3.33;;;;;;;-144.73;87.13;54251.72;5031775;28;20029;-71
2023/07/08 05:21:20;;;;;;;12.57;4.07;;;;;;;-144.73;85.06;54276.34;5034753;28;20478;-70
2023/07/08 05:23:49;;;;;;;8.45;3.65;;;;;;;-144.73;84.84;54259.91;5027997;28;20106;-71
2023/07/08 05:26:15;;;;;;;8.85;3.72;;;;;;;-144.73;82.68;54264.03;5029926;28;20025;-71
2023/07/08 05:28:40;;;;;;;12.27;4.00;;;;;;;-144.73;83.01;54288.66;5014090;28;20029;-71
2023/07/08 05:31:06;;;;;;;8.52;3.63;;;;;;;-144.73;81.60;54276.34;5030761;28;20029;-71
2023/07/08 05:33:33;;;;;;;6.80;3.47;;;;;;;-144.73;81.54;54243.50;5030712;28;20029;-71
2023/07/08 05:35:58;;;;;;;13.27;3.75;;;;;;;-144.73;79.55;54276.34;5030296;28;20025;-71
2023/07/08 05:38:24;;;;;;;7.20;3.13;;;;;;;-144.73;79.24;54305.06;5012250;28;20056;-70
2023/07/08 05:40:51;;;;;;;7.97;3.55;;;;;;;-144.73;79.12;54276.34;5011502;28;20121;-71
2023/07/08 05:43:17;;;;;;;11.20;3.10;;;;;;;-144.73;77.49;54227.09;5027326;28;20655;-71
2023/07/08 05:45:43;;;;;;;11.13;3.47;;;;;;;-144.73;77.78;54231.19;5022791;28;20041;-71
2023/07/08 05:48:08;;;;;;;10.50;3.80;;;;;;;-144.73;75.28;54249.66;5029290;28;20438;-70
2023/07/08 05:50:34;;;;;;;11.48;3.63;;;;;;;-144.73;75.81;54204.50;5029080;28;20037;-71
2023/07/08 05:52:59;;;;;;;9.38;3.15;;;;;;;-144.73;73.99;54237.34;5030546;28;20018;-71
2023/07/08 05:55:24;;;;;;;6.80;3.20;;;;;;;-144.73;74.30;54245.56;5011946;28;20053;-71
2023/07/08 05:57:50;;;;;;;8.20;3.30;;;;;;;-144.73;72.79;54231.19;5013043;28;20112;-71
2023/07/08 06:00:15;;;;;;;6.80;3.20;;;;;;;-144.73;72.97;54235.28;5010431;28;20041;-71
2023/07/08 06:02:40;;;;;;;6.03;3.03;;;;;;;-144.73;71.73;54243.50;5029856;28;20052;-70
2023/07/08 06:05:06;;;;;;;10.10;3.25;;;;;;;-144.73;71.00;54190.13;5012485;28;20037;-71
2023/07/08 06:07:32;;;;;;;5.88;3.78;;;;;;;-144.73;70.29;54227.09;5030848;28;20018;-71
2023/07/08 06:09:57;;;;;;;6.25;2.67;;;;;;;-144.73;70.97;54276.34;5029330;28;20029;-71
2023/07/08 06:12:23;;;;;;;5.35;3.13;;;;;;;-144.73;70.95;54255.81;5030068;28;20044;-71
2023/07/08 06:14:49;;;;;;;10.05;2.80;;;;;;;-144.73;69.62;54222.97;5017630;28;20037;-70
2023/07/08 06:17:15;;;;;;;7.13;3.28;;;;;;;-144.73;67.87;54231.19;5012822;28;20013;-71
2023/07/08 06:19:41;;;;;;;8.52;3.45;;;;;;;-144.73;68.98;54276.34;5027635;28;20063;-71
2023/07/08 06:22:06;;;;;;;7.28;3.45;;;;;;;-144.73;68.01;54239.41;5008721;28;20026;-71
2023/07/08 06:24:31;;;;;;;7.53;3.40;;;;;;;-144.73;68.15;54261.97;5009627;28;20549;-71
2023/07/08 06:26:56;;;;;;;6.57;3.22;;;;;;;-144.73;66.83;54231.19;5039230;28;20117;-71
2023/07/08 06:29:23;;;;;;;10.48;3.13;;;;;;;-144.73;66.84;54235.28;5018155;28;20021;-71
2023/07/08 06:31:49;;;;;;;7.70;3.03;;;;;;;-144.73;67.61;54229.13;5015513;28;20068;-71
2023/07/08 06:34:14;;;;;;;9.07;3.45;;;;;;;-144.73;66.06;54194.25;5021890;28;20069;-71
2023/07/08 06:36:39;;;;;;;8.45;3.28;;;;;;;-144.73;66.81;54227.09;5024246;28;20124;-71
2023/07/08 06:39:07;;;;;;;8.02;3.30;;;;;;;-144.73;65.76;54280.44;5010923;28;20092;-71
2023/07/08 06:41:33;;;;;;;9.52;3.15;;;;;;;-144.73;66.71;54296.88;5007846;28;20057;-71
2023/07/08 06:43:58;;;;;;;9.02;3.15;;;;;;;-144.73;66.09;54231.19;5011462;28;20068;-71
2023/07/08 06:46:24;;;;;;;5.25;3.33;;;;;;;-144.73;66.12;54247.59;5012061;28;20121;-71
2023/07/08 06:48:49;;;;;;;8.27;3.17;;;;;;;-144.73;65.04;54212.72;5011905;28;20021;-71
2023/07/08 06:51:15;;;;;;;8.25;3.47;;;;;;;-144.73;64.42;54227.09;5025066;28;20514;-71
2023/07/08 06:53:40;;;;;;;5.43;3.05;;;;;;;-144.73;63.34;54233.25;5010399;28;20516;-71
2023/07/08 06:56:11;;;;;;;12.60;4.65;;;;;;;-144.73;63.82;54264.03;5029806;28;20049;-72
2023/07/08 06:58:37;;;;;;;;;;;;;;;-144.73;63.52;54233.25;5017409;28;20351;-70
2023/07/08 07:01:02;;;;;;;10.38;3.10;;;;;;;-144.73;62.70;54251.72;5028901;28;19936;-70
2023/07/08 07:03:27;;;;;;;8.15;3.65;;;;;;;-144.73;62.59;54225.03;5006996;28;20048;-70
2023/07/08 07:05:53;;;;;;;5.40;2.67;;;;;;;-144.73;62.13;54210.66;5015575;28;20053;-70
2023/07/08 07:08:18;;;;;;;7.05;3.00;;;;;;;-144.73;61.71;54251.72;5005947;28;20061;-71
2023/07/08 07:10:44;;;;;;;6.70;2.80;;;;;;;-144.73;61.47;54212.72;5016765;28;20064;-70
2023/07/08 07:13:09;;;;;;;4.55;2.78;;;;;;;-144.73;61.27;54206.56;5033788;28;20051;-70
2023/07/08 07:15:35;;;;;;;8.80;3.30;;;;;;;-144.73;60.29;54218.88;5021338;28;20084;-71
2023/07/08 07:18:00;;;;;;;6.47;2.88;;;;;;;-144.73;61.14;54259.91;5003734;28;20065;-71
2023/07/08 07:20:26;;;;;;;7.22;3.13;;;;;;;-144.73;60.38;54214.78;5013495;28;20026;-71
2023/07/08 07:22:52;;;;;;;6.75;3.33;;;;;;;-144.73;60.28;54227.09;5022320;28;20087;-71
2023/07/08 07:25:18;;;;;;;6.97;2.90;;;;;;;-144.73;58.53;54218.88;5011735;28;20033;-71
2023/07/08 07:27:43;;;;;;;7.38;2.90;;;;;;;-144.73;57.42;54255.81;5029206;28;20039;-72
2023/07/08 07:30:12;;;;;;;6.05;2.97;;;;;;;-144.73;57.82;54251.72;5019571;28;20033;-70
2023/07/08 07:32:38;;;;;;;7.00;2.50;;;;;;;-144.73;58.26;54243.50;5035273;28;20022;-72
2023/07/08 07:35:05;;;;;;;5.07;2.90;;;;;;;-144.73;57.94;54210.66;5027589;28;20039;-71
2023/07/08 07:37:30;;;;;;;7.18;2.55;;;;;;;-144.73;57.37;54210.66;5035159;28;20021;-70
2023/07/08 07:39:55;;;;;;;5.10;2.30;;;;;;;-144.73;54.72;54149.09;5021877;28;20037;-71
2023/07/08 07:42:21;;;;;;;5.68;2.40;;;;;;;-144.73;54.88;54181.94;5035276;28;20025;-71
2023/07/08 07:44:46;;;;;;;8.73;2.65;;;;;;;-144.73;55.27;54190.13;5035978;28;20558;-71
2023/07/08 07:47:12;;;;;;;7.78;3.15;;;;;;;-144.73;53.58;54177.81;5033163;28;20116;-71
2023/07/08 07:49:38;;;;;;;6.45;2.92;;;;;;;-144.73;52.68;54210.66;5019936;28;20020;-72
2023/07/08 07:52:07;;;;;;;5.25;2.65;;;;;;;-144.73;51.89;54190.13;5019856;28;20013;-71
2023/07/08 07:54:33;;;;;;;6.60;2.70;;;;;;;-144.73;52.76;54192.19;5016599;28;20044;-71
2023/07/08 07:56:58;;;;;;;5.88;3.05;;;;;;;-144.73;51.42;54194.25;5037158;28;20029;-71
2023/07/08 07:59:24;;;;;;;5.75;3.10;;;;;;;-144.73;50.50;54186.03;5019109;28;20044;-70
2023/07/08 08:01:49;;;;;;;5.07;2.83;;;;;;;-144.73;49.61;54179.88;5021067;28;20087;-71
2023/07/08 08:04:14;;;;;;;5.57;2.80;;;;;;;-144.73;49.06;54177.81;5031607;28;20482;-71
2023/07/08 08:06:40;;;;;;;10.48;2.65;;;;;;;-144.73;49.20;54210.66;5020711;28;20033;-71
2023/07/08 08:09:06;;;;;;;9.27;3.08;;;;;;;-144.73;50.33;54169.63;5019673;28;20036;-71
2023/07/08 08:11:33;;;;;;;5.45;2.70;;;;;;;-144.73;48.00;54169.63;5030275;28;20045;-72
2023/07/08 08:14:00;;;;;;;7.45;2.55;;;;;;;-144.73;47.08;54126.53;5004460;28;20064;-72
2023/07/08 08:16:25;;;;;;;5.88;2.60;;;;;;;-144.73;48.50;54169.63;4996823;28;20047;-72
2023/07/08 08:18:51;;;;;;;7.53;3.28;;;;;;;-144.73;47.21;54132.69;5022832;28;20021;-73
2023/07/08 08:21:16;;;;;;;5.38;2.65;;;;;;;-144.73;46.11;54165.50;5017883;28;20038;-72
2023/07/08 08:23:42;;;;;;;4.38;2.35;;;;;;;-144.73;47.26;54177.81;4982177;28;20048;-73
2023/07/08 08:26:07;;;;;;;9.95;2.90;;;;;;;-144.73;46.66;54149.09;5004154;28;20020;-73
2023/07/08 08:28:33;;;;;;;5.30;2.80;;;;;;;-144.73;46.42;54116.25;5020543;28;20034;-73
2023/07/08 08:30:58;;;;;;;8.95;2.70;;;;;;;-144.73;46.07;54194.25;5001262;28;20068;-73
2023/07/08 08:33:23;;;;;;;8.18;3.00;;;;;;;-144.73;45.75;54145.00;5002707;28;20068;-73
2023/07/08 08:35:49;;;;;;;14.27;2.42;;;;;;;-144.73;44.32;54194.25;5002157;28;20030;-73
2023/07/08 08:38:14;;;;;;;4.50;2.38;;;;;;;-144.73;46.06;54173.72;5002365;28;20041;-73
2023/07/08 08:40:41;;;;;;;7.57;3.15;;;;;;;-144.73;45.90;54165.50;5003701;28;20037;-73
2023/07/08 08:43:13;;;;;;;7.50;2.80;;;;;;;-144.73;45.87;54108.03;4999975;28;20046;-73
2023/07/08 08:46:24;;;;;;;7.90;2.72;;;;;;;-144.73;45.20;54169.63;5023875;28;20025;-73
2023/07/08 08:49:10;;;;;;;;;;;;;;;-144.73;44.81;54165.50;4949244;28;20038;-73
2023/07/08 08:51:35;;;;;;;10.43;2.95;;;;;;;-144.73;42.56;54132.69;4927798;29;19923;-73
2023/07/08 08:54:01;;;;;;;9.73;3.00;;;;;;;-144.73;43.40;54161.41;4982062;28;20509;-74
2023/07/08 08:56:38;;;;;;;10.40;2.75;;;;;;;-144.73;43.01;54114.19;5009168;28;20053;-73
2023/07/08 08:59:16;;;;;;;4.60;3.03;;;;;;;-144.73;43.14;54183.97;4993575;28;20412;-73
2023/07/08 09:01:41;;;;;;;6.05;2.58;;;;;;;-144.73;43.14;54169.63;5021631;28;20140;-73
2023/07/08 09:04:23;;;;;;;5.00;2.72;;;;;;;-144.73;42.11;54124.47;5025091;28;20116;-73
2023/07/08 09:06:50;;;;;;;6.30;2.90;;;;;;;-144.73;42.21;54165.50;5029400;28;20458;-73
2023/07/08 09:09:24;;;;;;;5.78;2.55;;;;;;;-144.73;42.70;54161.41;5013000;28;20068;-73
2023/07/08 09:12:04;;;;;;;7.05;2.67;;;;;;;-144.73;40.59;54149.09;5032565;28;20029;-73
2023/07/08 09:14:32;;;;;;;5.07;2.67;;;;;;;-144.73;40.68;54157.31;5014065;28;20041;-73
2023/07/08 09:17:24;;;;;;;4.85;2.92;;;;;;;-144.73;41.44;54153.19;5036593;28;20021;-73
2023/07/08 09:19:57;;;;;;;4.10;2.55;;;;;;;-144.73;41.11;54145.00;5039032;28;20076;-73
2023/07/08 09:22:36;;;;;;;7.05;2.42;;;;;;;-144.73;40.31;54122.41;5036793;28;20044;-73
2023/07/08 09:25:24;;;;;;;4.78;2.83;;;;;;;-144.73;40.82;54128.56;5020804;28;20032;-73
2023/07/08 09:27:49;;;;;;;3.67;2.40;;;;;;;-144.73;40.20;54132.69;5034585;28;20032;-73
2023/07/08 09:30:17;;;;;;;4.45;2.65;;;;;;;-144.73;39.01;54151.16;5020369;28;20047;-73
2023/07/08 09:32:42;;;;;;;6.10;2.95;;;;;;;-144.73;39.32;54163.47;5034770;28;20056;-73
2023/07/08 09:35:15;;;;;;;4.95;2.78;;;;;;;-144.73;40.21;54112.16;5015122;28;20057;-73
2023/07/08 09:37:46;;;;;;;6.90;2.65;;;;;;;-144.73;38.97;54128.56;5029544;28;20049;-73
2023/07/08 09:40:25;;;;;;;4.80;2.63;;;;;;;-144.73;39.09;54128.56;5013455;28;20025;-73
2023/07/08 09:43:12;;;;;;;8.27;2.72;;;;;;;-144.73;38.24;54145.00;5057452;23;20103;-73
2023/07/08 09:45:45;;;;;;;6.03;3.10;;;;;;;-144.73;39.82;54085.47;5023450;28;20134;-73
2023/07/08 09:48:18;;;;;;;6.22;2.88;;;;;;;-144.73;38.43;54087.53;5020439;28;20041;-73
2023/07/08 09:50:48;;;;;;;2.75;2.20;;;;;;;-144.73;38.42;54099.84;5023818;28;20060;-73
2023/07/08 09:53:14;;;;;;;9.40;2.53;;;;;;;-144.73;38.83;54122.41;5016693;28;20124;-73
2023/07/08 09:55:39;;;;;;;3.95;2.60;;;;;;;-144.73;37.53;54132.69;4999575;28;20093;-74
2023/07/08 09:58:17;;;;;;;3.95;2.35;;;;;;;-144.73;37.22;54079.31;5010575;28;20053;-75
2023/07/08 10:00:42;;;;;;;7.60;3.63;;;;;;;-144.73;38.04;54116.25;5016040;28;20042;-75
2023/07/08 10:03:30;;;;;;;4.80;3.03;;;;;;;-144.73;36.98;54132.69;4998869;28;20053;-75
2023/07/08 10:05:57;;;;;;;6.18;2.70;;;;;;;-144.73;36.99;54145.00;5016456;28;20022;-74
2023/07/08 10:08:27;;;;;;;9.20;3.08;;;;;;;-144.73;37.28;54091.63;4998023;28;20425;-74
2023/07/08 10:11:30;;;;;;;4.05;2.67;;;;;;;-144.73;37.12;54108.03;5005562;28;20025;-74
2023/07/08 10:14:33;;;;;;;4.47;2.60;;;;;;;-144.73;36.90;54099.84;5015692;28;20081;-75
2023/07/08 10:16:59;;;;;;;6.13;2.58;;;;;;;-144.73;37.07;54120.34;5019763;28;20025;-75
2023/07/08 10:19:24;;;;;;;7.22;3.45;;;;;;;-144.73;37.98;54081.38;5013521;28;20038;-74
2023/07/08 10:21:58;;;;;;;5.30;3.92;;;;;;;-144.73;37.36;54099.84;5019765;28;20029;-74
2023/07/08 10:24:48;;;;;;;13.60;4.13;;;;;;;-144.73;36.44;54112.16;5014980;28;20037;-74
2023/07/08 10:27:39;;;;;;;15.02;6.78;;;;;;;-144.73;37.47;54112.16;5014024;28;20034;-74
2023/07/08 10:30:19;;;;;;;8.10;3.88;;;;;;;-144.73;36.66;54087.53;5031882;28;20029;-74
2023/07/08 10:32:59;;;;;;;13.23;6.33;;;;;;;-144.73;37.35;54073.16;5021063;28;20033;-74
2023/07/08 10:35:33;;;;;;;11.50;6.45;;;;;;;-144.73;36.12;54075.22;5014796;28;20284;-74
2023/07/08 10:38:36;;;;;;;9.27;6.15;;;;;;;-144.73;35.79;54083.41;5016232;28;20041;-73
2023/07/08 10:41:16;;;;;;;10.32;4.38;;;;;;;-144.73;35.57;54091.63;5018928;28;20022;-74
2023/07/08 10:43:47;;;;;;;10.75;4.53;;;;;;;-144.73;35.50;54112.16;5009442;28;20103;-74
2023/07/08 10:46:47;;;;;;;4.80;3.00;;;;;;;-144.73;34.60;54054.69;5015047;28;20041;-74
2023/07/08 10:49:27;;;;;;;12.00;8.30;;;;;;;-144.73;35.31;54085.47;4992230;28;20038;-73
2023/07/08 10:52:28;;;;;;;54.58;11.05;;;;;;;-144.73;34.46;54062.91;5018240;28;20070;-74
2023/07/08 10:55:04;;;;;;;4.85;2.95;;;;;;;-144.73;34.43;54083.41;4976529;28;20068;-73
2023/07/08 10:57:53;;;;;;;8.05;2.85;;;;;;;-144.73;34.25;54077.25;5033068;28;20580;-74
2023/07/08 11:00:57;;;;;;;5.50;2.78;;;;;;;-144.73;33.84;54069.06;5017243;28;20025;-74
2023/07/08 11:03:46;;;;;;;6.07;2.35;;;;;;;-144.73;33.69;54071.09;5006470;28;20065;-74
2023/07/08 11:06:17;;;;;;;4.95;2.90;;;;;;;-144.73;33.52;54071.09;5018654;28;20031;-74
2023/07/08 11:08:44;;;;;;;;;;;;;;;-144.73;34.48;54103.94;5038567;28;20037;-74
2023/07/08 11:11:27;;;;;;;5.63;2.75;;;;;;;-144.73;33.04;54050.59;5019109;28;20266;-74
2023/07/08 11:14:00;;;;;;;4.25;2.67;;;;;;;-144.73;33.82;54062.91;5008521;28;20053;-74
2023/07/08 11:16:31;;;;;;;6.07;2.75;;;;;;;-144.73;32.05;54050.59;5018269;28;20029;-74
2023/07/08 11:19:05;;;;;;;3.67;2.70;;;;;;;-144.73;32.96;54030.06;5015926;28;20041;-74